sensor_id;sensor_type;location;lat;lon;timestamp;temperature;humidity
44461;DHT22;30162;53.642;10.640;2023-04-15T00:00:36;11.80;93.80
44461;DHT22;30162;53.642;10.640;2023-04-15T00:03:02;11.90;93.90
44461;DHT22;30162;53.642;10.640;2023-04-15T00:05:29;11.90;94.00
44461;DHT22;30162;53.642;10.640;2023-04-15T00:07:56;12.00;93.90
44461;DHT22;30162;53.642;10.640;2023-04-15T00:10:22;11.90;94.00
44461;DHT22;30162;53.642;10.640;2023-04-15T00:12:47;11.80;94.00
44461;DHT22;30162;53.642;10.640;2023-04-15T00:15:13;11.90;94.10
44461;DHT22;30162;53.642;10.640;2023-04-15T00:17:38;11.80;94.00
44461;DHT22;30162;53.642;10.640;2023-04-15T00:20:04;11.70;94.30
44461;DHT22;30162;53.642;10.640;2023-04-15T00:22:31;11.80;94.50
44461;DHT22;30162;53.642;10.640;2023-04-15T00:24:57;11.80;94.20
44461;DHT22;30162;53.642;10.640;2023-04-15T00:27:22;11.90;94.30
44461;DHT22;30162;53.642;10.640;2023-04-15T00:29:48;11.90;94.30
44461;DHT22;30162;53.642;10.640;2023-04-15T00:32:13;12.00;94.20
44461;DHT22;30162;53.642;10.640;2023-04-15T00:34:39;12.00;94.10
44461;DHT22;30162;53.642;10.640;2023-04-15T00:37:05;12.10;94.00
44461;DHT22;30162;53.642;10.640;2023-04-15T00:39:30;12.00;94.00
44461;DHT22;30162;53.642;10.640;2023-04-15T00:41:56;11.80;94.40
44461;DHT22;30162;53.642;10.640;2023-04-15T00:44:22;11.90;94.30
44461;DHT22;30162;53.642;10.640;2023-04-15T00:46:50;11.90;94.40
44461;DHT22;30162;53.642;10.640;2023-04-15T00:49:16;11.90;94.20
44461;DHT22;30162;53.642;10.640;2023-04-15T00:51:42;12.00;94.20
44461;DHT22;30162;53.642;10.640;2023-04-15T00:54:09;12.00;94.40
44461;DHT22;30162;53.642;10.640;2023-04-15T00:56:35;12.00;94.20
44461;DHT22;30162;53.642;10.640;2023-04-15T00:59:03;12.00;94.30
44461;DHT22;30162;53.642;10.640;2023-04-15T01:01:29;12.10;94.10
44461;DHT22;30162;53.642;10.640;2023-04-15T01:03:56;12.00;94.20
44461;DHT22;30162;53.642;10.640;2023-04-15T01:06:23;12.10;94.30
44461;DHT22;30162;53.642;10.640;2023-04-15T01:08:48;12.00;94.10
44461;DHT22;30162;53.642;10.640;2023-04-15T01:11:15;12.10;94.30
44461;DHT22;30162;53.642;10.640;2023-04-15T01:13:41;12.10;94.30
44461;DHT22;30162;53.642;10.640;2023-04-15T01:16:08;12.00;94.30
44461;DHT22;30162;53.642;10.640;2023-04-15T01:18:37;11.90;94.30
44461;DHT22;30162;53.642;10.640;2023-04-15T01:21:04;11.80;94.50
44461;DHT22;30162;53.642;10.640;2023-04-15T01:23:30;11.90;94.50
44461;DHT22;30162;53.642;10.640;2023-04-15T01:25:56;11.80;94.60
44461;DHT22;30162;53.642;10.640;2023-04-15T01:28:23;12.00;94.80
44461;DHT22;30162;53.642;10.640;2023-04-15T01:30:49;12.00;94.60
44461;DHT22;30162;53.642;10.640;2023-04-15T01:33:15;12.00;94.50
44461;DHT22;30162;53.642;10.640;2023-04-15T01:35:41;12.10;94.50
44461;DHT22;30162;53.642;10.640;2023-04-15T01:38:09;12.00;94.60
44461;DHT22;30162;53.642;10.640;2023-04-15T01:40:35;12.00;94.60
44461;DHT22;30162;53.642;10.640;2023-04-15T01:43:01;11.90;94.70
44461;DHT22;30162;53.642;10.640;2023-04-15T01:45:28;11.80;94.90
44461;DHT22;30162;53.642;10.640;2023-04-15T01:47:53;11.80;95.20
44461;DHT22;30162;53.642;10.640;2023-04-15T01:50:19;11.90;94.90
44461;DHT22;30162;53.642;10.640;2023-04-15T01:52:46;11.80;95.00
44461;DHT22;30162;53.642;10.640;2023-04-15T01:55:12;11.90;95.30
44461;DHT22;30162;53.642;10.640;2023-04-15T01:57:38;11.90;95.00
44461;DHT22;30162;53.642;10.640;2023-04-15T02:00:04;12.00;95.10
44461;DHT22;30162;53.642;10.640;2023-04-15T02:02:32;12.10;95.00
44461;DHT22;30162;53.642;10.640;2023-04-15T02:04:58;12.20;95.00
44461;DHT22;30162;53.642;10.640;2023-04-15T02:07:23;12.20;94.90
44461;DHT22;30162;53.642;10.640;2023-04-15T02:09:49;12.20;94.80
44461;DHT22;30162;53.642;10.640;2023-04-15T02:12:15;12.20;94.80
44461;DHT22;30162;53.642;10.640;2023-04-15T02:14:40;12.10;94.80
44461;DHT22;30162;53.642;10.640;2023-04-15T02:17:06;12.10;95.00
44461;DHT22;30162;53.642;10.640;2023-04-15T02:19:36;12.10;94.90
44461;DHT22;30162;53.642;10.640;2023-04-15T02:22:01;12.20;94.70
44461;DHT22;30162;53.642;10.640;2023-04-15T02:24:28;12.20;94.80
44461;DHT22;30162;53.642;10.640;2023-04-15T02:26:54;12.10;95.00
44461;DHT22;30162;53.642;10.640;2023-04-15T02:29:20;12.00;95.10
44461;DHT22;30162;53.642;10.640;2023-04-15T02:31:47;12.10;94.90
44461;DHT22;30162;53.642;10.640;2023-04-15T02:34:12;12.10;94.90
44461;DHT22;30162;53.642;10.640;2023-04-15T02:36:38;11.90;95.20
44461;DHT22;30162;53.642;10.640;2023-04-15T02:39:05;12.00;95.20
44461;DHT22;30162;53.642;10.640;2023-04-15T02:41:30;11.80;95.10
44461;DHT22;30162;53.642;10.640;2023-04-15T02:43:56;11.80;95.40
44461;DHT22;30162;53.642;10.640;2023-04-15T02:46:21;11.80;95.10
44461;DHT22;30162;53.642;10.640;2023-04-15T02:48:48;11.80;95.00
44461;DHT22;30162;53.642;10.640;2023-04-15T02:51:15;11.80;95.10
44461;DHT22;30162;53.642;10.640;2023-04-15T02:53:41;11.70;95.20
44461;DHT22;30162;53.642;10.640;2023-04-15T02:56:07;11.80;95.20
44461;DHT22;30162;53.642;10.640;2023-04-15T02:58:33;11.70;95.20
44461;DHT22;30162;53.642;10.640;2023-04-15T03:00:59;11.80;95.20
44461;DHT22;30162;53.642;10.640;2023-04-15T03:03:25;11.80;95.30
44461;DHT22;30162;53.642;10.640;2023-04-15T03:05:52;12.10;95.10
44461;DHT22;30162;53.642;10.640;2023-04-15T03:08:17;12.00;94.90
44461;DHT22;30162;53.642;10.640;2023-04-15T03:10:43;11.90;95.20
44461;DHT22;30162;53.642;10.640;2023-04-15T03:13:08;11.90;95.20
44461;DHT22;30162;53.642;10.640;2023-04-15T03:15:34;11.90;95.20
44461;DHT22;30162;53.642;10.640;2023-04-15T03:18:00;11.90;95.20
44461;DHT22;30162;53.642;10.640;2023-04-15T03:20:26;12.00;95.10
44461;DHT22;30162;53.642;10.640;2023-04-15T03:22:51;12.10;95.20
44461;DHT22;30162;53.642;10.640;2023-04-15T03:25:17;12.00;95.10
44461;DHT22;30162;53.642;10.640;2023-04-15T03:27:42;12.00;95.10
44461;DHT22;30162;53.642;10.640;2023-04-15T03:30:08;12.00;95.30
44461;DHT22;30162;53.642;10.640;2023-04-15T03:32:34;12.10;95.30
44461;DHT22;30162;53.642;10.640;2023-04-15T03:34:59;12.10;95.00
44461;DHT22;30162;53.642;10.640;2023-04-15T03:37:25;12.20;95.00
44461;DHT22;30162;53.642;10.640;2023-04-15T03:39:51;12.20;94.90
44461;DHT22;30162;53.642;10.640;2023-04-15T03:42:17;12.10;94.90
44461;DHT22;30162;53.642;10.640;2023-04-15T03:44:42;11.90;95.20
44461;DHT22;30162;53.642;10.640;2023-04-15T03:47:08;11.90;95.40
44461;DHT22;30162;53.642;10.640;2023-04-15T03:49:34;11.80;95.30
44461;DHT22;30162;53.642;10.640;2023-04-15T03:52:00;11.80;95.60
44461;DHT22;30162;53.642;10.640;2023-04-15T03:54:25;11.90;95.50
44461;DHT22;30162;53.642;10.640;2023-04-15T03:56:51;11.90;95.50
44461;DHT22;30162;53.642;10.640;2023-04-15T03:59:16;11.90;95.40
44461;DHT22;30162;53.642;10.640;2023-04-15T04:01:42;12.00;95.40
44461;DHT22;30162;53.642;10.640;2023-04-15T04:04:08;12.00;95.30
44461;DHT22;30162;53.642;10.640;2023-04-15T04:06:33;12.00;95.20
44461;DHT22;30162;53.642;10.640;2023-04-15T04:08:59;11.80;95.50
44461;DHT22;30162;53.642;10.640;2023-04-15T04:11:25;11.90;95.60
44461;DHT22;30162;53.642;10.640;2023-04-15T04:13:52;11.90;95.70
44461;DHT22;30162;53.642;10.640;2023-04-15T04:16:18;12.00;95.40
44461;DHT22;30162;53.642;10.640;2023-04-15T04:18:43;11.70;95.40
44461;DHT22;30162;53.642;10.640;2023-04-15T04:21:09;11.90;95.70
44461;DHT22;30162;53.642;10.640;2023-04-15T04:23:34;12.00;95.60
44461;DHT22;30162;53.642;10.640;2023-04-15T04:26:00;12.00;95.30
44461;DHT22;30162;53.642;10.640;2023-04-15T04:28:26;11.90;95.20
44461;DHT22;30162;53.642;10.640;2023-04-15T04:30:51;12.00;95.60
44461;DHT22;30162;53.642;10.640;2023-04-15T04:33:17;12.00;95.50
44461;DHT22;30162;53.642;10.640;2023-04-15T04:35:42;11.80;95.60
44461;DHT22;30162;53.642;10.640;2023-04-15T04:38:08;11.90;95.60
44461;DHT22;30162;53.642;10.640;2023-04-15T04:40:33;11.80;95.60
44461;DHT22;30162;53.642;10.640;2023-04-15T04:42:59;11.80;95.70
44461;DHT22;30162;53.642;10.640;2023-04-15T04:45:25;11.70;95.80
44461;DHT22;30162;53.642;10.640;2023-04-15T04:47:51;11.50;95.80
44461;DHT22;30162;53.642;10.640;2023-04-15T04:50:17;11.60;96.00
44461;DHT22;30162;53.642;10.640;2023-04-15T04:52:42;11.60;96.10
44461;DHT22;30162;53.642;10.640;2023-04-15T04:55:08;11.70;96.10
44461;DHT22;30162;53.642;10.640;2023-04-15T04:57:33;11.80;95.80
44461;DHT22;30162;53.642;10.640;2023-04-15T05:00:05;11.80;95.70
44461;DHT22;30162;53.642;10.640;2023-04-15T05:02:30;11.90;95.60
44461;DHT22;30162;53.642;10.640;2023-04-15T05:04:56;12.00;95.60
44461;DHT22;30162;53.642;10.640;2023-04-15T05:07:22;12.00;95.60
44461;DHT22;30162;53.642;10.640;2023-04-15T05:09:47;11.90;95.60
44461;DHT22;30162;53.642;10.640;2023-04-15T05:12:13;12.00;95.50
44461;DHT22;30162;53.642;10.640;2023-04-15T05:14:42;12.00;95.20
44461;DHT22;30162;53.642;10.640;2023-04-15T05:17:08;11.90;95.30
44461;DHT22;30162;53.642;10.640;2023-04-15T05:19:33;11.80;95.70
44461;DHT22;30162;53.642;10.640;2023-04-15T05:21:59;11.80;95.70
44461;DHT22;30162;53.642;10.640;2023-04-15T05:24:25;11.90;95.60
44461;DHT22;30162;53.642;10.640;2023-04-15T05:26:51;12.10;95.40
44461;DHT22;30162;53.642;10.640;2023-04-15T05:29:17;12.10;95.20
44461;DHT22;30162;53.642;10.640;2023-04-15T05:31:42;12.00;95.40
44461;DHT22;30162;53.642;10.640;2023-04-15T05:34:08;12.00;95.20
44461;DHT22;30162;53.642;10.640;2023-04-15T05:36:34;12.10;95.20
44461;DHT22;30162;53.642;10.640;2023-04-15T05:39:00;12.20;95.20
44461;DHT22;30162;53.642;10.640;2023-04-15T05:41:26;12.20;95.00
44461;DHT22;30162;53.642;10.640;2023-04-15T05:43:51;12.20;95.00
44461;DHT22;30162;53.642;10.640;2023-04-15T05:46:17;12.00;95.20
44461;DHT22;30162;53.642;10.640;2023-04-15T05:48:42;11.90;95.40
44461;DHT22;30162;53.642;10.640;2023-04-15T05:51:08;11.90;95.40
44461;DHT22;30162;53.642;10.640;2023-04-15T05:53:33;12.00;95.20
44461;DHT22;30162;53.642;10.640;2023-04-15T05:55:59;11.80;95.40
44461;DHT22;30162;53.642;10.640;2023-04-15T05:58:24;11.90;95.50
44461;DHT22;30162;53.642;10.640;2023-04-15T06:00:51;11.90;95.50
44461;DHT22;30162;53.642;10.640;2023-04-15T06:03:17;11.90;95.70
44461;DHT22;30162;53.642;10.640;2023-04-15T06:05:43;12.00;95.40
44461;DHT22;30162;53.642;10.640;2023-04-15T06:08:09;11.90;95.10
44461;DHT22;30162;53.642;10.640;2023-04-15T06:10:35;12.00;95.40
44461;DHT22;30162;53.642;10.640;2023-04-15T06:13:04;12.00;95.30
44461;DHT22;30162;53.642;10.640;2023-04-15T06:15:30;12.00;95.40
44461;DHT22;30162;53.642;10.640;2023-04-15T06:17:56;12.10;95.40
44461;DHT22;30162;53.642;10.640;2023-04-15T06:20:21;12.10;95.30
44461;DHT22;30162;53.642;10.640;2023-04-15T06:22:47;12.10;95.10
44461;DHT22;30162;53.642;10.640;2023-04-15T06:25:12;12.20;95.20
44461;DHT22;30162;53.642;10.640;2023-04-15T06:27:38;12.30;95.10
44461;DHT22;30162;53.642;10.640;2023-04-15T06:30:04;12.30;95.00
44461;DHT22;30162;53.642;10.640;2023-04-15T06:32:31;12.30;94.80
44461;DHT22;30162;53.642;10.640;2023-04-15T06:34:57;12.30;94.90
44461;DHT22;30162;53.642;10.640;2023-04-15T06:37:23;12.30;95.00
44461;DHT22;30162;53.642;10.640;2023-04-15T06:39:48;12.10;95.00
44461;DHT22;30162;53.642;10.640;2023-04-15T06:42:14;12.20;95.00
44461;DHT22;30162;53.642;10.640;2023-04-15T06:44:39;12.00;95.20
44461;DHT22;30162;53.642;10.640;2023-04-15T06:47:05;11.80;95.40
44461;DHT22;30162;53.642;10.640;2023-04-15T06:49:30;11.80;95.50
44461;DHT22;30162;53.642;10.640;2023-04-15T06:51:56;11.90;95.50
44461;DHT22;30162;53.642;10.640;2023-04-15T06:54:22;12.10;95.40
44461;DHT22;30162;53.642;10.640;2023-04-15T06:56:47;12.00;95.40
44461;DHT22;30162;53.642;10.640;2023-04-15T06:59:13;12.00;95.60
44461;DHT22;30162;53.642;10.640;2023-04-15T07:01:41;12.20;95.50
44461;DHT22;30162;53.642;10.640;2023-04-15T07:04:07;12.30;95.00
44461;DHT22;30162;53.642;10.640;2023-04-15T07:06:33;12.20;95.50
44461;DHT22;30162;53.642;10.640;2023-04-15T07:09:00;12.40;95.30
44461;DHT22;30162;53.642;10.640;2023-04-15T07:11:26;12.30;95.20
44461;DHT22;30162;53.642;10.640;2023-04-15T07:13:51;12.20;95.30
44461;DHT22;30162;53.642;10.640;2023-04-15T07:16:17;12.20;95.40
44461;DHT22;30162;53.642;10.640;2023-04-15T07:18:43;12.40;95.20
44461;DHT22;30162;53.642;10.640;2023-04-15T07:21:09;12.60;94.80
44461;DHT22;30162;53.642;10.640;2023-04-15T07:23:34;12.80;94.70
44461;DHT22;30162;53.642;10.640;2023-04-15T07:26:00;12.80;94.70
44461;DHT22;30162;53.642;10.640;2023-04-15T07:28:26;12.70;94.40
44461;DHT22;30162;53.642;10.640;2023-04-15T07:30:51;12.60;95.10
44461;DHT22;30162;53.642;10.640;2023-04-15T07:33:17;12.80;95.00
44461;DHT22;30162;53.642;10.640;2023-04-15T07:35:43;12.90;94.80
44461;DHT22;30162;53.642;10.640;2023-04-15T07:38:09;13.10;94.80
44461;DHT22;30162;53.642;10.640;2023-04-15T07:40:37;13.20;94.50
44461;DHT22;30162;53.642;10.640;2023-04-15T07:43:03;13.20;94.70
44461;DHT22;30162;53.642;10.640;2023-04-15T07:45:30;13.30;94.40
44461;DHT22;30162;53.642;10.640;2023-04-15T07:47:55;13.30;94.50
44461;DHT22;30162;53.642;10.640;2023-04-15T07:50:21;13.30;94.30
44461;DHT22;30162;53.642;10.640;2023-04-15T07:52:48;13.20;94.10
44461;DHT22;30162;53.642;10.640;2023-04-15T07:55:14;13.20;94.20
44461;DHT22;30162;53.642;10.640;2023-04-15T07:57:41;13.30;94.20
44461;DHT22;30162;53.642;10.640;2023-04-15T08:00:07;13.30;94.00
44461;DHT22;30162;53.642;10.640;2023-04-15T08:02:34;13.40;94.30
44461;DHT22;30162;53.642;10.640;2023-04-15T08:04:59;13.40;93.90
44461;DHT22;30162;53.642;10.640;2023-04-15T08:07:27;13.30;93.80
44461;DHT22;30162;53.642;10.640;2023-04-15T08:09:53;13.10;94.50
44461;DHT22;30162;53.642;10.640;2023-04-15T08:12:18;13.30;94.60
44461;DHT22;30162;53.642;10.640;2023-04-15T08:14:44;13.40;94.50
44461;DHT22;30162;53.642;10.640;2023-04-15T08:17:10;13.50;94.00
44461;DHT22;30162;53.642;10.640;2023-04-15T08:19:35;13.50;93.90
44461;DHT22;30162;53.642;10.640;2023-04-15T08:22:01;13.60;93.80
44461;DHT22;30162;53.642;10.640;2023-04-15T08:24:27;13.50;94.10
44461;DHT22;30162;53.642;10.640;2023-04-15T08:26:53;13.60;93.90
44461;DHT22;30162;53.642;10.640;2023-04-15T08:29:18;13.60;94.10
44461;DHT22;30162;53.642;10.640;2023-04-15T08:31:44;13.70;94.10
44461;DHT22;30162;53.642;10.640;2023-04-15T08:34:13;13.80;94.10
44461;DHT22;30162;53.642;10.640;2023-04-15T08:36:39;13.90;93.70
44461;DHT22;30162;53.642;10.640;2023-04-15T08:39:04;13.80;93.20
44461;DHT22;30162;53.642;10.640;2023-04-15T08:41:47;13.80;93.30
44461;DHT22;30162;53.642;10.640;2023-04-15T08:44:13;13.70;93.60
44461;DHT22;30162;53.642;10.640;2023-04-15T08:46:40;13.90;93.60
44461;DHT22;30162;53.642;10.640;2023-04-15T08:49:10;13.90;93.80
44461;DHT22;30162;53.642;10.640;2023-04-15T08:51:39;13.90;94.10
44461;DHT22;30162;53.642;10.640;2023-04-15T08:54:04;14.10;93.90
44461;DHT22;30162;53.642;10.640;2023-04-15T08:56:32;14.20;93.70
44461;DHT22;30162;53.642;10.640;2023-04-15T08:58:58;14.30;93.50
44461;DHT22;30162;53.642;10.640;2023-04-15T09:01:24;14.40;93.70
44461;DHT22;30162;53.642;10.640;2023-04-15T09:03:51;14.60;93.50
44461;DHT22;30162;53.642;10.640;2023-04-15T09:06:20;14.70;93.60
44461;DHT22;30162;53.642;10.640;2023-04-15T09:08:46;14.60;93.60
44461;DHT22;30162;53.642;10.640;2023-04-15T09:11:12;14.80;93.30
44461;DHT22;30162;53.642;10.640;2023-04-15T09:13:38;15.00;93.40
44461;DHT22;30162;53.642;10.640;2023-04-15T09:16:06;15.10;93.20
44461;DHT22;30162;53.642;10.640;2023-04-15T09:18:33;15.10;92.70
44461;DHT22;30162;53.642;10.640;2023-04-15T09:21:14;15.20;92.50
44461;DHT22;30162;53.642;10.640;2023-04-15T09:23:53;15.20;92.30
44461;DHT22;30162;53.642;10.640;2023-04-15T09:26:19;15.40;92.50
44461;DHT22;30162;53.642;10.640;2023-04-15T09:28:44;15.60;92.40
44461;DHT22;30162;53.642;10.640;2023-04-15T09:31:10;15.50;92.00
44461;DHT22;30162;53.642;10.640;2023-04-15T09:33:53;15.60;92.20
44461;DHT22;30162;53.642;10.640;2023-04-15T09:36:20;15.40;92.20
44461;DHT22;30162;53.642;10.640;2023-04-15T09:38:56;15.50;92.00
44461;DHT22;30162;53.642;10.640;2023-04-15T09:41:22;15.60;92.00
44461;DHT22;30162;53.642;10.640;2023-04-15T09:43:48;15.40;92.10
44461;DHT22;30162;53.642;10.640;2023-04-15T09:46:14;15.50;92.00
44461;DHT22;30162;53.642;10.640;2023-04-15T09:48:39;15.40;91.90
44461;DHT22;30162;53.642;10.640;2023-04-15T09:51:05;15.40;91.90
44461;DHT22;30162;53.642;10.640;2023-04-15T09:53:35;15.60;92.70
44461;DHT22;30162;53.642;10.640;2023-04-15T09:56:01;15.60;92.40
44461;DHT22;30162;53.642;10.640;2023-04-15T10:00:57;15.70;91.90
44461;DHT22;30162;53.642;10.640;2023-04-15T10:03:34;15.80;91.50
44461;DHT22;30162;53.642;10.640;2023-04-15T10:06:01;15.60;92.10
44461;DHT22;30162;53.642;10.640;2023-04-15T10:08:29;15.70;92.00
44461;DHT22;30162;53.642;10.640;2023-04-15T10:10:55;15.80;91.90
44461;DHT22;30162;53.642;10.640;2023-04-15T10:13:23;15.90;92.00
44461;DHT22;30162;53.642;10.640;2023-04-15T10:16:07;16.00;92.00
44461;DHT22;30162;53.642;10.640;2023-04-15T10:18:38;15.90;92.00
44461;DHT22;30162;53.642;10.640;2023-04-15T10:21:05;15.90;92.10
44461;DHT22;30162;53.642;10.640;2023-04-15T10:23:33;15.90;92.20
44461;DHT22;30162;53.642;10.640;2023-04-15T10:25:59;16.10;91.70
44461;DHT22;30162;53.642;10.640;2023-04-15T10:28:25;16.10;91.80
44461;DHT22;30162;53.642;10.640;2023-04-15T10:30:51;16.00;91.70
44461;DHT22;30162;53.642;10.640;2023-04-15T10:33:20;16.10;91.80
44461;DHT22;30162;53.642;10.640;2023-04-15T10:35:47;16.00;91.60
44461;DHT22;30162;53.642;10.640;2023-04-15T10:38:37;16.00;91.80
44461;DHT22;30162;53.642;10.640;2023-04-15T10:41:19;16.00;91.70
44461;DHT22;30162;53.642;10.640;2023-04-15T10:43:46;16.00;91.60
44461;DHT22;30162;53.642;10.640;2023-04-15T10:46:12;16.20;92.00
44461;DHT22;30162;53.642;10.640;2023-04-15T10:48:38;16.10;91.60
44461;DHT22;30162;53.642;10.640;2023-04-15T10:51:04;16.20;91.40
44461;DHT22;30162;53.642;10.640;2023-04-15T10:53:30;16.00;91.40
44461;DHT22;30162;53.642;10.640;2023-04-15T10:55:57;16.00;91.70
44461;DHT22;30162;53.642;10.640;2023-04-15T10:58:24;15.70;91.80
44461;DHT22;30162;53.642;10.640;2023-04-15T11:00:52;15.90;91.80
44461;DHT22;30162;53.642;10.640;2023-04-15T11:03:36;15.80;91.60
44461;DHT22;30162;53.642;10.640;2023-04-15T11:06:03;15.80;91.80
44461;DHT22;30162;53.642;10.640;2023-04-15T11:08:57;15.80;92.00
44461;DHT22;30162;53.642;10.640;2023-04-15T11:12:03;15.90;91.90
44461;DHT22;30162;53.642;10.640;2023-04-15T11:14:29;15.90;92.50
44461;DHT22;30162;53.642;10.640;2023-04-15T11:16:54;16.40;91.90
44461;DHT22;30162;53.642;10.640;2023-04-15T11:19:20;16.70;91.30
44461;DHT22;30162;53.642;10.640;2023-04-15T11:21:46;16.60;91.60
44461;DHT22;30162;53.642;10.640;2023-04-15T11:24:23;16.70;91.40
44461;DHT22;30162;53.642;10.640;2023-04-15T11:26:56;16.50;91.00
44461;DHT22;30162;53.642;10.640;2023-04-15T11:29:28;16.50;90.90
44461;DHT22;30162;53.642;10.640;2023-04-15T11:32:04;16.90;91.40
44461;DHT22;30162;53.642;10.640;2023-04-15T11:34:31;16.90;90.80
44461;DHT22;30162;53.642;10.640;2023-04-15T11:36:57;17.10;90.50
44461;DHT22;30162;53.642;10.640;2023-04-15T11:39:23;17.20;90.20
44461;DHT22;30162;53.642;10.640;2023-04-15T11:41:48;17.20;90.00
44461;DHT22;30162;53.642;10.640;2023-04-15T11:44:17;17.00;90.00
44461;DHT22;30162;53.642;10.640;2023-04-15T11:46:43;16.70;91.10
44461;DHT22;30162;53.642;10.640;2023-04-15T11:49:08;17.00;90.20
44461;DHT22;30162;53.642;10.640;2023-04-15T11:51:34;17.00;90.20
44461;DHT22;30162;53.642;10.640;2023-04-15T11:54:00;17.40;90.70
44461;DHT22;30162;53.642;10.640;2023-04-15T11:56:26;17.70;90.10
44461;DHT22;30162;53.642;10.640;2023-04-15T11:58:57;18.10;89.40
44461;DHT22;30162;53.642;10.640;2023-04-15T12:01:36;18.40;88.10
44461;DHT22;30162;53.642;10.640;2023-04-15T12:04:11;18.20;88.20
44461;DHT22;30162;53.642;10.640;2023-04-15T12:06:37;18.20;87.00
44461;DHT22;30162;53.642;10.640;2023-04-15T12:11:58;18.00;89.60
44461;DHT22;30162;53.642;10.640;2023-04-15T12:14:28;18.20;88.00
44461;DHT22;30162;53.642;10.640;2023-04-15T12:17:00;17.80;85.90
44461;DHT22;30162;53.642;10.640;2023-04-15T12:19:36;17.60;87.40
44461;DHT22;30162;53.642;10.640;2023-04-15T12:22:08;17.70;87.60
44461;DHT22;30162;53.642;10.640;2023-04-15T12:24:35;17.80;87.20
44461;DHT22;30162;53.642;10.640;2023-04-15T12:27:11;17.50;86.40
44461;DHT22;30162;53.642;10.640;2023-04-15T12:29:39;17.60;86.90
44461;DHT22;30162;53.642;10.640;2023-04-15T12:37:04;17.80;87.50
44461;DHT22;30162;53.642;10.640;2023-04-15T12:39:33;18.00;86.30
44461;DHT22;30162;53.642;10.640;2023-04-15T12:41:59;18.00;86.60
44461;DHT22;30162;53.642;10.640;2023-04-15T12:44:26;17.80;84.90
44461;DHT22;30162;53.642;10.640;2023-04-15T12:46:52;17.60;86.10
44461;DHT22;30162;53.642;10.640;2023-04-15T12:49:18;17.80;86.40
44461;DHT22;30162;53.642;10.640;2023-04-15T12:51:48;17.80;86.50
44461;DHT22;30162;53.642;10.640;2023-04-15T12:54:15;17.80;86.30
44461;DHT22;30162;53.642;10.640;2023-04-15T12:56:41;18.00;86.70
44461;DHT22;30162;53.642;10.640;2023-04-15T12:59:07;18.50;85.90
44461;DHT22;30162;53.642;10.640;2023-04-15T13:01:33;18.40;84.90
44461;DHT22;30162;53.642;10.640;2023-04-15T13:03:58;18.60;84.20
44461;DHT22;30162;53.642;10.640;2023-04-15T13:06:24;18.40;84.60
44461;DHT22;30162;53.642;10.640;2023-04-15T13:08:50;18.30;84.40
44461;DHT22;30162;53.642;10.640;2023-04-15T13:11:15;18.40;84.00
44461;DHT22;30162;53.642;10.640;2023-04-15T13:13:41;18.30;84.20
44461;DHT22;30162;53.642;10.640;2023-04-15T13:16:07;18.20;83.90
44461;DHT22;30162;53.642;10.640;2023-04-15T13:18:32;18.40;83.20
44461;DHT22;30162;53.642;10.640;2023-04-15T13:20:59;18.30;83.30
44461;DHT22;30162;53.642;10.640;2023-04-15T13:23:25;18.50;82.40
44461;DHT22;30162;53.642;10.640;2023-04-15T13:25:50;18.30;82.50
44461;DHT22;30162;53.642;10.640;2023-04-15T13:28:16;18.30;83.00
44461;DHT22;30162;53.642;10.640;2023-04-15T13:30:42;18.40;82.20
44461;DHT22;30162;53.642;10.640;2023-04-15T13:33:08;18.10;82.40
44461;DHT22;30162;53.642;10.640;2023-04-15T13:35:34;18.10;82.40
44461;DHT22;30162;53.642;10.640;2023-04-15T13:38:00;18.30;82.30
44461;DHT22;30162;53.642;10.640;2023-04-15T13:40:26;18.20;82.60
44461;DHT22;30162;53.642;10.640;2023-04-15T13:42:51;17.70;83.20
44461;DHT22;30162;53.642;10.640;2023-04-15T13:45:17;17.70;82.80
44461;DHT22;30162;53.642;10.640;2023-04-15T13:47:43;17.80;83.50
44461;DHT22;30162;53.642;10.640;2023-04-15T13:50:09;17.90;83.90
44461;DHT22;30162;53.642;10.640;2023-04-15T13:52:35;18.20;82.20
44461;DHT22;30162;53.642;10.640;2023-04-15T13:55:01;18.50;82.40
44461;DHT22;30162;53.642;10.640;2023-04-15T13:57:27;18.60;81.30
44461;DHT22;30162;53.642;10.640;2023-04-15T13:59:53;18.60;81.70
44461;DHT22;30162;53.642;10.640;2023-04-15T14:02:20;18.80;82.20
44461;DHT22;30162;53.642;10.640;2023-04-15T14:04:46;19.00;81.50
44461;DHT22;30162;53.642;10.640;2023-04-15T14:07:11;19.10;82.30
44461;DHT22;30162;53.642;10.640;2023-04-15T14:09:37;19.10;79.90
44461;DHT22;30162;53.642;10.640;2023-04-15T14:12:03;18.90;79.90
44461;DHT22;30162;53.642;10.640;2023-04-15T14:14:37;18.80;81.60
44461;DHT22;30162;53.642;10.640;2023-04-15T14:17:03;18.70;81.00
44461;DHT22;30162;53.642;10.640;2023-04-15T14:19:30;18.70;80.70
44461;DHT22;30162;53.642;10.640;2023-04-15T14:21:56;18.60;80.60
44461;DHT22;30162;53.642;10.640;2023-04-15T14:24:22;18.80;81.10
44461;DHT22;30162;53.642;10.640;2023-04-15T14:26:47;18.80;81.30
44461;DHT22;30162;53.642;10.640;2023-04-15T14:29:13;18.80;82.60
44461;DHT22;30162;53.642;10.640;2023-04-15T14:31:38;18.90;81.70
44461;DHT22;30162;53.642;10.640;2023-04-15T14:34:04;19.00;81.00
44461;DHT22;30162;53.642;10.640;2023-04-15T14:36:30;19.00;80.40
44461;DHT22;30162;53.642;10.640;2023-04-15T14:38:56;18.90;80.60
44461;DHT22;30162;53.642;10.640;2023-04-15T14:41:22;18.90;80.80
44461;DHT22;30162;53.642;10.640;2023-04-15T14:43:48;18.90;81.10
44461;DHT22;30162;53.642;10.640;2023-04-15T14:46:14;18.80;79.30
44461;DHT22;30162;53.642;10.640;2023-04-15T14:48:39;18.40;80.00
44461;DHT22;30162;53.642;10.640;2023-04-15T14:51:05;18.30;81.50
44461;DHT22;30162;53.642;10.640;2023-04-15T14:53:31;18.30;82.10
44461;DHT22;30162;53.642;10.640;2023-04-15T14:55:56;18.10;82.10
44461;DHT22;30162;53.642;10.640;2023-04-15T14:58:22;18.30;82.00
44461;DHT22;30162;53.642;10.640;2023-04-15T15:00:48;18.20;81.00
44461;DHT22;30162;53.642;10.640;2023-04-15T15:03:13;17.80;82.00
44461;DHT22;30162;53.642;10.640;2023-04-15T15:05:40;17.80;82.40
44461;DHT22;30162;53.642;10.640;2023-04-15T15:08:07;17.60;82.50
44461;DHT22;30162;53.642;10.640;2023-04-15T15:10:33;17.50;82.10
44461;DHT22;30162;53.642;10.640;2023-04-15T15:13:00;17.50;82.40
44461;DHT22;30162;53.642;10.640;2023-04-15T15:15:26;17.70;82.30
44461;DHT22;30162;53.642;10.640;2023-04-15T15:17:52;17.90;82.60
44461;DHT22;30162;53.642;10.640;2023-04-15T15:20:18;18.00;82.70
44461;DHT22;30162;53.642;10.640;2023-04-15T15:22:44;17.70;82.70